Ogden, Indiana
Current Conditions -  °F | °C
As of 7:35 PM on Thursday 27 Nov 2014 (Local Time) from KMQJ Reporting Station
Broken Clouds Broken Clouds  
Wind Chill: 17°   Ceiling: 3300
Heat Index: 27°   Visibility: 10mi
Dew Point: 12°   Wind: 10mph
Humidity: 55%   Direction: 300°WNW
Pressure: 30.39"   Gusts: NA
Location:  39.8283°N, 85.543°W
Report Text: KMQJ 280035Z AUTO 30009KT 10SM BKN033 M03/M11 A3039 RMK AO1
Loading
Personal Weather Stations






























Interactive Weather Map New forecast layout! Learn more

10-Day Weather Forecast

Advertisements
Track Severe Weather on mobile